sensor_id;sensor_type;location;lat;lon;timestamp;P1;durP1;ratioP1;P2;durP2;ratioP2
7527;SDS011;3805;49.006;8.514;2022-12-08T00:00:22;29.40;;;23.37;;
7527;SDS011;3805;49.006;8.514;2022-12-08T00:03:10;30.00;;;21.60;;
7527;SDS011;3805;49.006;8.514;2022-12-08T00:06:00;33.53;;;23.17;;
7527;SDS011;3805;49.006;8.514;2022-12-08T00:09:10;34.17;;;22.50;;
7527;SDS011;3805;49.006;8.514;2022-12-08T00:12:10;34.13;;;23.33;;
7527;SDS011;3805;49.006;8.514;2022-12-08T00:14:59;32.77;;;21.93;;
7527;SDS011;3805;49.006;8.514;2022-12-08T00:17:50;29.67;;;22.23;;
7527;SDS011;3805;49.006;8.514;2022-12-08T00:20:38;32.60;;;22.30;;
7527;SDS011;3805;49.006;8.514;2022-12-08T00:23:27;28.77;;;20.33;;
7527;SDS011;3805;49.006;8.514;2022-12-08T00:26:15;51.13;;;23.73;;
7527;SDS011;3805;49.006;8.514;2022-12-08T00:29:04;28.77;;;21.50;;
7527;SDS011;3805;49.006;8.514;2022-12-08T00:31:53;31.87;;;21.83;;
7527;SDS011;3805;49.006;8.514;2022-12-08T00:34:42;27.53;;;19.90;;
7527;SDS011;3805;49.006;8.514;2022-12-08T00:37:31;31.67;;;20.30;;
7527;SDS011;3805;49.006;8.514;2022-12-08T00:40:20;28.20;;;19.27;;
7527;SDS011;3805;49.006;8.514;2022-12-08T00:43:08;23.93;;;16.67;;
7527;SDS011;3805;49.006;8.514;2022-12-08T00:45:56;24.73;;;17.97;;
7527;SDS011;3805;49.006;8.514;2022-12-08T00:48:45;25.00;;;16.57;;
7527;SDS011;3805;49.006;8.514;2022-12-08T00:51:35;24.20;;;16.50;;
7527;SDS011;3805;49.006;8.514;2022-12-08T00:54:24;22.20;;;15.20;;
7527;SDS011;3805;49.006;8.514;2022-12-08T00:57:12;25.23;;;15.17;;
7527;SDS011;3805;49.006;8.514;2022-12-08T01:00:01;21.00;;;15.40;;
7527;SDS011;3805;49.006;8.514;2022-12-08T01:02:50;27.23;;;14.53;;
7527;SDS011;3805;49.006;8.514;2022-12-08T01:05:39;20.27;;;13.27;;
7527;SDS011;3805;49.006;8.514;2022-12-08T01:08:29;21.90;;;14.40;;
7527;SDS011;3805;49.006;8.514;2022-12-08T01:11:18;21.23;;;13.63;;
7527;SDS011;3805;49.006;8.514;2022-12-08T01:14:06;18.07;;;12.73;;
7527;SDS011;3805;49.006;8.514;2022-12-08T01:16:55;17.53;;;13.30;;
7527;SDS011;3805;49.006;8.514;2022-12-08T01:19:44;23.00;;;17.33;;
7527;SDS011;3805;49.006;8.514;2022-12-08T01:22:32;18.50;;;14.20;;
7527;SDS011;3805;49.006;8.514;2022-12-08T01:25:23;23.60;;;17.00;;
7527;SDS011;3805;49.006;8.514;2022-12-08T01:28:11;24.03;;;16.67;;
7527;SDS011;3805;49.006;8.514;2022-12-08T01:31:00;23.97;;;17.37;;
7527;SDS011;3805;49.006;8.514;2022-12-08T01:33:49;20.90;;;15.17;;
7527;SDS011;3805;49.006;8.514;2022-12-08T01:36:37;23.53;;;15.27;;
7527;SDS011;3805;49.006;8.514;2022-12-08T01:39:26;21.30;;;15.83;;
7527;SDS011;3805;49.006;8.514;2022-12-08T01:42:20;22.03;;;15.40;;
7527;SDS011;3805;49.006;8.514;2022-12-08T01:45:12;23.17;;;15.47;;
7527;SDS011;3805;49.006;8.514;2022-12-08T01:48:02;21.50;;;16.57;;
7527;SDS011;3805;49.006;8.514;2022-12-08T01:50:52;22.53;;;15.27;;
7527;SDS011;3805;49.006;8.514;2022-12-08T01:53:41;24.77;;;16.07;;
7527;SDS011;3805;49.006;8.514;2022-12-08T01:56:30;20.87;;;15.90;;
7527;SDS011;3805;49.006;8.514;2022-12-08T01:59:22;25.30;;;16.33;;
7527;SDS011;3805;49.006;8.514;2022-12-08T02:02:11;25.13;;;16.60;;
7527;SDS011;3805;49.006;8.514;2022-12-08T02:05:00;21.77;;;15.10;;
7527;SDS011;3805;49.006;8.514;2022-12-08T02:07:49;23.90;;;15.53;;
7527;SDS011;3805;49.006;8.514;2022-12-08T02:10:39;24.80;;;15.40;;
7527;SDS011;3805;49.006;8.514;2022-12-08T02:13:29;21.23;;;13.87;;
7527;SDS011;3805;49.006;8.514;2022-12-08T02:16:24;22.13;;;15.77;;
7527;SDS011;3805;49.006;8.514;2022-12-08T02:19:28;19.87;;;13.30;;
7527;SDS011;3805;49.006;8.514;2022-12-08T02:22:24;19.73;;;14.87;;
7527;SDS011;3805;49.006;8.514;2022-12-08T02:25:19;20.03;;;13.97;;
7527;SDS011;3805;49.006;8.514;2022-12-08T02:28:21;22.37;;;15.43;;
7527;SDS011;3805;49.006;8.514;2022-12-08T02:31:27;22.10;;;14.67;;
7527;SDS011;3805;49.006;8.514;2022-12-08T02:34:24;18.73;;;14.00;;
7527;SDS011;3805;49.006;8.514;2022-12-08T02:37:16;20.47;;;14.50;;
7527;SDS011;3805;49.006;8.514;2022-12-08T02:40:08;23.17;;;15.87;;
7527;SDS011;3805;49.006;8.514;2022-12-08T02:43:01;20.80;;;14.63;;
7527;SDS011;3805;49.006;8.514;2022-12-08T02:45:54;22.47;;;14.00;;
7527;SDS011;3805;49.006;8.514;2022-12-08T02:48:46;21.37;;;13.87;;
7527;SDS011;3805;49.006;8.514;2022-12-08T02:51:36;19.33;;;15.00;;
7527;SDS011;3805;49.006;8.514;2022-12-08T02:54:24;21.47;;;14.30;;
7527;SDS011;3805;49.006;8.514;2022-12-08T02:57:17;23.80;;;15.13;;
7527;SDS011;3805;49.006;8.514;2022-12-08T03:00:13;23.73;;;15.40;;
7527;SDS011;3805;49.006;8.514;2022-12-08T03:03:06;24.90;;;14.87;;
7527;SDS011;3805;49.006;8.514;2022-12-08T03:05:59;20.97;;;13.83;;
7527;SDS011;3805;49.006;8.514;2022-12-08T03:08:56;21.10;;;14.77;;
7527;SDS011;3805;49.006;8.514;2022-12-08T03:11:46;23.23;;;14.53;;
7527;SDS011;3805;49.006;8.514;2022-12-08T03:14:38;24.27;;;14.90;;
7527;SDS011;3805;49.006;8.514;2022-12-08T03:17:28;18.53;;;14.17;;
7527;SDS011;3805;49.006;8.514;2022-12-08T03:20:20;20.67;;;14.53;;
7527;SDS011;3805;49.006;8.514;2022-12-08T03:23:09;18.93;;;14.10;;
7527;SDS011;3805;49.006;8.514;2022-12-08T03:26:03;17.10;;;13.10;;
7527;SDS011;3805;49.006;8.514;2022-12-08T03:28:55;18.97;;;12.63;;
7527;SDS011;3805;49.006;8.514;2022-12-08T03:31:46;20.87;;;14.97;;
7527;SDS011;3805;49.006;8.514;2022-12-08T03:34:37;19.03;;;13.37;;
7527;SDS011;3805;49.006;8.514;2022-12-08T03:37:27;15.50;;;12.47;;
7527;SDS011;3805;49.006;8.514;2022-12-08T03:40:18;21.13;;;13.80;;
7527;SDS011;3805;49.006;8.514;2022-12-08T03:43:08;18.23;;;13.50;;
7527;SDS011;3805;49.006;8.514;2022-12-08T03:45:57;18.73;;;14.10;;
7527;SDS011;3805;49.006;8.514;2022-12-08T03:48:46;21.63;;;13.53;;
7527;SDS011;3805;49.006;8.514;2022-12-08T03:51:34;18.63;;;13.60;;
7527;SDS011;3805;49.006;8.514;2022-12-08T03:54:23;20.30;;;13.50;;
7527;SDS011;3805;49.006;8.514;2022-12-08T03:57:11;18.83;;;11.90;;
7527;SDS011;3805;49.006;8.514;2022-12-08T04:00:01;17.97;;;12.23;;
7527;SDS011;3805;49.006;8.514;2022-12-08T04:02:51;18.23;;;13.53;;
7527;SDS011;3805;49.006;8.514;2022-12-08T04:05:39;17.77;;;13.03;;
7527;SDS011;3805;49.006;8.514;2022-12-08T04:08:28;17.17;;;13.90;;
7527;SDS011;3805;49.006;8.514;2022-12-08T04:11:16;15.60;;;13.00;;
7527;SDS011;3805;49.006;8.514;2022-12-08T04:14:05;16.77;;;12.07;;
7527;SDS011;3805;49.006;8.514;2022-12-08T04:16:55;20.10;;;13.37;;
7527;SDS011;3805;49.006;8.514;2022-12-08T04:19:45;17.57;;;12.83;;
7527;SDS011;3805;49.006;8.514;2022-12-08T04:22:33;14.83;;;11.63;;
7527;SDS011;3805;49.006;8.514;2022-12-08T04:25:22;16.53;;;13.80;;
7527;SDS011;3805;49.006;8.514;2022-12-08T04:28:11;15.00;;;11.90;;
7527;SDS011;3805;49.006;8.514;2022-12-08T04:30:59;20.03;;;13.30;;
7527;SDS011;3805;49.006;8.514;2022-12-08T04:33:50;20.53;;;12.40;;
7527;SDS011;3805;49.006;8.514;2022-12-08T04:36:39;16.40;;;12.43;;
7527;SDS011;3805;49.006;8.514;2022-12-08T04:39:27;14.27;;;11.83;;
7527;SDS011;3805;49.006;8.514;2022-12-08T04:42:16;18.77;;;11.90;;
7527;SDS011;3805;49.006;8.514;2022-12-08T04:45:05;14.93;;;12.27;;
7527;SDS011;3805;49.006;8.514;2022-12-08T04:47:54;12.90;;;11.30;;
7527;SDS011;3805;49.006;8.514;2022-12-08T04:50:44;17.33;;;12.53;;
7527;SDS011;3805;49.006;8.514;2022-12-08T04:53:32;16.23;;;11.33;;
7527;SDS011;3805;49.006;8.514;2022-12-08T04:56:21;13.40;;;11.13;;
7527;SDS011;3805;49.006;8.514;2022-12-08T04:59:09;15.00;;;11.57;;
7527;SDS011;3805;49.006;8.514;2022-12-08T05:01:58;17.30;;;12.97;;
7527;SDS011;3805;49.006;8.514;2022-12-08T05:04:47;14.53;;;10.77;;
7527;SDS011;3805;49.006;8.514;2022-12-08T05:07:36;18.80;;;11.77;;
7527;SDS011;3805;49.006;8.514;2022-12-08T05:10:25;17.63;;;11.93;;
7527;SDS011;3805;49.006;8.514;2022-12-08T05:13:13;15.63;;;11.43;;
7527;SDS011;3805;49.006;8.514;2022-12-08T05:16:03;17.07;;;12.80;;
7527;SDS011;3805;49.006;8.514;2022-12-08T05:18:52;17.90;;;13.10;;
7527;SDS011;3805;49.006;8.514;2022-12-08T05:21:41;23.13;;;13.37;;
7527;SDS011;3805;49.006;8.514;2022-12-08T05:24:31;17.97;;;13.50;;
7527;SDS011;3805;49.006;8.514;2022-12-08T05:27:19;16.47;;;11.73;;
7527;SDS011;3805;49.006;8.514;2022-12-08T05:30:08;17.53;;;12.30;;
7527;SDS011;3805;49.006;8.514;2022-12-08T05:32:57;16.43;;;11.60;;
7527;SDS011;3805;49.006;8.514;2022-12-08T05:35:45;23.60;;;14.17;;
7527;SDS011;3805;49.006;8.514;2022-12-08T05:38:34;20.57;;;12.13;;
7527;SDS011;3805;49.006;8.514;2022-12-08T05:41:24;20.37;;;13.10;;
7527;SDS011;3805;49.006;8.514;2022-12-08T05:44:13;21.27;;;13.67;;
7527;SDS011;3805;49.006;8.514;2022-12-08T05:47:01;19.57;;;12.53;;
7527;SDS011;3805;49.006;8.514;2022-12-08T05:49:50;20.13;;;12.80;;
7527;SDS011;3805;49.006;8.514;2022-12-08T05:52:38;18.80;;;13.57;;
7527;SDS011;3805;49.006;8.514;2022-12-08T05:55:27;19.40;;;13.07;;
7527;SDS011;3805;49.006;8.514;2022-12-08T05:58:17;15.33;;;11.60;;
7527;SDS011;3805;49.006;8.514;2022-12-08T06:01:12;22.43;;;14.47;;
7527;SDS011;3805;49.006;8.514;2022-12-08T06:04:05;21.47;;;14.33;;
7527;SDS011;3805;49.006;8.514;2022-12-08T06:06:54;18.63;;;13.07;;
7527;SDS011;3805;49.006;8.514;2022-12-08T06:09:42;23.30;;;13.73;;
7527;SDS011;3805;49.006;8.514;2022-12-08T06:12:31;23.63;;;15.30;;
7527;SDS011;3805;49.006;8.514;2022-12-08T06:15:21;22.03;;;13.60;;
7527;SDS011;3805;49.006;8.514;2022-12-08T06:18:10;24.87;;;15.90;;
7527;SDS011;3805;49.006;8.514;2022-12-08T06:21:02;24.57;;;14.77;;
7527;SDS011;3805;49.006;8.514;2022-12-08T06:23:51;25.53;;;14.77;;
7527;SDS011;3805;49.006;8.514;2022-12-08T06:26:41;20.23;;;14.63;;
7527;SDS011;3805;49.006;8.514;2022-12-08T06:29:29;21.40;;;15.33;;
7527;SDS011;3805;49.006;8.514;2022-12-08T06:32:19;24.33;;;15.50;;
7527;SDS011;3805;49.006;8.514;2022-12-08T06:35:13;23.33;;;15.90;;
7527;SDS011;3805;49.006;8.514;2022-12-08T06:38:02;21.83;;;15.77;;
7527;SDS011;3805;49.006;8.514;2022-12-08T06:40:52;24.27;;;17.57;;
7527;SDS011;3805;49.006;8.514;2022-12-08T06:43:41;21.50;;;16.77;;
7527;SDS011;3805;49.006;8.514;2022-12-08T06:46:30;24.00;;;16.43;;
7527;SDS011;3805;49.006;8.514;2022-12-08T06:49:20;26.70;;;17.87;;
7527;SDS011;3805;49.006;8.514;2022-12-08T06:52:09;29.20;;;18.03;;
7527;SDS011;3805;49.006;8.514;2022-12-08T06:54:57;26.40;;;16.23;;
7527;SDS011;3805;49.006;8.514;2022-12-08T06:57:46;22.60;;;16.83;;
7527;SDS011;3805;49.006;8.514;2022-12-08T07:00:39;22.87;;;16.30;;
7527;SDS011;3805;49.006;8.514;2022-12-08T07:03:28;20.47;;;15.10;;
7527;SDS011;3805;49.006;8.514;2022-12-08T07:06:19;23.20;;;17.00;;
7527;SDS011;3805;49.006;8.514;2022-12-08T07:09:10;31.37;;;20.07;;
7527;SDS011;3805;49.006;8.514;2022-12-08T07:11:58;35.20;;;22.80;;
7527;SDS011;3805;49.006;8.514;2022-12-08T07:14:47;32.47;;;21.70;;
7527;SDS011;3805;49.006;8.514;2022-12-08T07:17:35;27.43;;;20.37;;
7527;SDS011;3805;49.006;8.514;2022-12-08T07:20:23;27.93;;;20.20;;
7527;SDS011;3805;49.006;8.514;2022-12-08T07:23:13;33.20;;;20.70;;
7527;SDS011;3805;49.006;8.514;2022-12-08T07:26:02;27.23;;;18.10;;
7527;SDS011;3805;49.006;8.514;2022-12-08T07:28:53;30.80;;;18.20;;
7527;SDS011;3805;49.006;8.514;2022-12-08T07:31:42;26.57;;;18.43;;
7527;SDS011;3805;49.006;8.514;2022-12-08T07:34:30;31.53;;;19.93;;
7527;SDS011;3805;49.006;8.514;2022-12-08T07:37:19;28.30;;;19.17;;
7527;SDS011;3805;49.006;8.514;2022-12-08T07:40:09;35.30;;;18.40;;
7527;SDS011;3805;49.006;8.514;2022-12-08T07:42:58;32.93;;;20.33;;
7527;SDS011;3805;49.006;8.514;2022-12-08T07:45:47;29.37;;;21.37;;
7527;SDS011;3805;49.006;8.514;2022-12-08T07:48:36;32.63;;;21.90;;
7527;SDS011;3805;49.006;8.514;2022-12-08T07:51:24;31.33;;;20.93;;
7527;SDS011;3805;49.006;8.514;2022-12-08T07:54:13;30.50;;;20.63;;
7527;SDS011;3805;49.006;8.514;2022-12-08T07:57:03;31.57;;;22.00;;
7527;SDS011;3805;49.006;8.514;2022-12-08T07:59:52;36.20;;;21.60;;
7527;SDS011;3805;49.006;8.514;2022-12-08T08:02:40;27.10;;;21.20;;
7527;SDS011;3805;49.006;8.514;2022-12-08T08:05:29;30.57;;;21.67;;
7527;SDS011;3805;49.006;8.514;2022-12-08T08:08:18;35.37;;;22.43;;
7527;SDS011;3805;49.006;8.514;2022-12-08T08:11:06;32.00;;;21.33;;
7527;SDS011;3805;49.006;8.514;2022-12-08T08:14:08;32.77;;;20.87;;
7527;SDS011;3805;49.006;8.514;2022-12-08T08:16:56;31.50;;;21.00;;
7527;SDS011;3805;49.006;8.514;2022-12-08T08:19:45;31.00;;;21.40;;
7527;SDS011;3805;49.006;8.514;2022-12-08T08:22:34;31.77;;;21.17;;
7527;SDS011;3805;49.006;8.514;2022-12-08T08:25:22;45.00;;;23.70;;
7527;SDS011;3805;49.006;8.514;2022-12-08T08:28:11;31.23;;;22.43;;
7527;SDS011;3805;49.006;8.514;2022-12-08T08:31:02;33.87;;;22.07;;
7527;SDS011;3805;49.006;8.514;2022-12-08T08:33:51;29.97;;;20.90;;
7527;SDS011;3805;49.006;8.514;2022-12-08T08:36:40;38.67;;;22.63;;
7527;SDS011;3805;49.006;8.514;2022-12-08T08:39:28;35.67;;;24.07;;
7527;SDS011;3805;49.006;8.514;2022-12-08T08:42:17;37.93;;;23.50;;
7527;SDS011;3805;49.006;8.514;2022-12-08T08:45:06;29.90;;;21.03;;
7527;SDS011;3805;49.006;8.514;2022-12-08T08:47:56;35.00;;;23.70;;
7527;SDS011;3805;49.006;8.514;2022-12-08T08:50:45;31.60;;;22.20;;
7527;SDS011;3805;49.006;8.514;2022-12-08T08:53:34;30.60;;;22.23;;
7527;SDS011;3805;49.006;8.514;2022-12-08T08:56:22;30.67;;;20.73;;
7527;SDS011;3805;49.006;8.514;2022-12-08T08:59:11;31.50;;;20.00;;
7527;SDS011;3805;49.006;8.514;2022-12-08T09:01:59;30.50;;;21.50;;
7527;SDS011;3805;49.006;8.514;2022-12-08T09:04:49;35.03;;;22.60;;
7527;SDS011;3805;49.006;8.514;2022-12-08T09:07:38;32.07;;;22.80;;
7527;SDS011;3805;49.006;8.514;2022-12-08T09:10:27;31.43;;;21.40;;
7527;SDS011;3805;49.006;8.514;2022-12-08T09:13:15;31.20;;;22.50;;
7527;SDS011;3805;49.006;8.514;2022-12-08T09:16:05;28.13;;;21.60;;
7527;SDS011;3805;49.006;8.514;2022-12-08T09:18:55;30.13;;;21.57;;
7527;SDS011;3805;49.006;8.514;2022-12-08T09:21:45;28.40;;;19.97;;
7527;SDS011;3805;49.006;8.514;2022-12-08T09:24:34;29.73;;;21.87;;
7527;SDS011;3805;49.006;8.514;2022-12-08T09:27:22;30.23;;;20.60;;
7527;SDS011;3805;49.006;8.514;2022-12-08T09:30:11;29.00;;;20.83;;
7527;SDS011;3805;49.006;8.514;2022-12-08T09:33:00;28.50;;;20.63;;
7527;SDS011;3805;49.006;8.514;2022-12-08T09:35:49;29.83;;;20.83;;
7527;SDS011;3805;49.006;8.514;2022-12-08T09:38:39;32.63;;;20.93;;
7527;SDS011;3805;49.006;8.514;2022-12-08T09:41:29;26.90;;;19.97;;
7527;SDS011;3805;49.006;8.514;2022-12-08T09:47:38;28.87;;;19.80;;
7527;SDS011;3805;49.006;8.514;2022-12-08T09:50:29;35.67;;;20.70;;
7527;SDS011;3805;49.006;8.514;2022-12-08T09:53:20;32.90;;;21.63;;
7527;SDS011;3805;49.006;8.514;2022-12-08T09:56:13;32.90;;;22.47;;
7527;SDS011;3805;49.006;8.514;2022-12-08T09:59:05;30.10;;;20.93;;
7527;SDS011;3805;49.006;8.514;2022-12-08T10:01:59;25.93;;;20.57;;
7527;SDS011;3805;49.006;8.514;2022-12-08T10:04:48;29.60;;;20.30;;
7527;SDS011;3805;49.006;8.514;2022-12-08T10:07:37;29.97;;;19.00;;
7527;SDS011;3805;49.006;8.514;2022-12-08T10:10:32;27.17;;;18.90;;
7527;SDS011;3805;49.006;8.514;2022-12-08T10:13:28;26.93;;;18.80;;
7527;SDS011;3805;49.006;8.514;2022-12-08T10:16:22;27.30;;;20.17;;
7527;SDS011;3805;49.006;8.514;2022-12-08T10:19:17;25.27;;;19.40;;
7527;SDS011;3805;49.006;8.514;2022-12-08T10:22:11;28.83;;;19.40;;
7527;SDS011;3805;49.006;8.514;2022-12-08T10:25:04;27.70;;;18.43;;
7527;SDS011;3805;49.006;8.514;2022-12-08T10:27:56;28.50;;;19.17;;
7527;SDS011;3805;49.006;8.514;2022-12-08T10:30:47;27.80;;;19.13;;
7527;SDS011;3805;49.006;8.514;2022-12-08T10:33:35;26.70;;;18.70;;
7527;SDS011;3805;49.006;8.514;2022-12-08T10:36:26;27.00;;;19.63;;
7527;SDS011;3805;49.006;8.514;2022-12-08T10:39:32;25.33;;;17.47;;
7527;SDS011;3805;49.006;8.514;2022-12-08T10:42:23;27.47;;;19.30;;
7527;SDS011;3805;49.006;8.514;2022-12-08T10:45:17;26.40;;;18.40;;
7527;SDS011;3805;49.006;8.514;2022-12-08T10:48:13;29.03;;;17.90;;
7527;SDS011;3805;49.006;8.514;2022-12-08T10:51:08;29.50;;;19.57;;
7527;SDS011;3805;49.006;8.514;2022-12-08T10:54:23;24.47;;;18.50;;
7527;SDS011;3805;49.006;8.514;2022-12-08T10:57:18;22.10;;;16.03;;
7527;SDS011;3805;49.006;8.514;2022-12-08T11:00:11;23.90;;;17.93;;
7527;SDS011;3805;49.006;8.514;2022-12-08T11:03:02;21.50;;;15.70;;
7527;SDS011;3805;49.006;8.514;2022-12-08T11:05:55;26.20;;;18.63;;
7527;SDS011;3805;49.006;8.514;2022-12-08T11:08:50;24.90;;;17.67;;
7527;SDS011;3805;49.006;8.514;2022-12-08T11:11:43;23.20;;;16.27;;
7527;SDS011;3805;49.006;8.514;2022-12-08T11:14:34;26.00;;;17.03;;
7527;SDS011;3805;49.006;8.514;2022-12-08T11:17:34;21.00;;;15.80;;
7527;SDS011;3805;49.006;8.514;2022-12-08T11:20:25;27.70;;;17.80;;
7527;SDS011;3805;49.006;8.514;2022-12-08T11:23:19;21.20;;;15.97;;
7527;SDS011;3805;49.006;8.514;2022-12-08T11:26:11;22.63;;;15.70;;
7527;SDS011;3805;49.006;8.514;2022-12-08T11:29:06;20.70;;;14.53;;
7527;SDS011;3805;49.006;8.514;2022-12-08T11:31:56;19.70;;;14.83;;
7527;SDS011;3805;49.006;8.514;2022-12-08T11:34:48;21.63;;;16.00;;
7527;SDS011;3805;49.006;8.514;2022-12-08T11:37:39;20.50;;;14.97;;
7527;SDS011;3805;49.006;8.514;2022-12-08T11:40:31;24.00;;;16.47;;
7527;SDS011;3805;49.006;8.514;2022-12-08T11:43:24;21.33;;;15.50;;
7527;SDS011;3805;49.006;8.514;2022-12-08T11:46:18;18.67;;;14.97;;
7527;SDS011;3805;49.006;8.514;2022-12-08T11:49:08;25.00;;;17.53;;
7527;SDS011;3805;49.006;8.514;2022-12-08T11:51:58;20.13;;;15.10;;
7527;SDS011;3805;49.006;8.514;2022-12-08T11:54:52;18.93;;;15.10;;
7527;SDS011;3805;49.006;8.514;2022-12-08T11:57:45;20.67;;;14.50;;
7527;SDS011;3805;49.006;8.514;2022-12-08T12:00:35;23.83;;;16.63;;
7527;SDS011;3805;49.006;8.514;2022-12-08T12:03:25;21.17;;;15.30;;
7527;SDS011;3805;49.006;8.514;2022-12-08T12:06:19;20.77;;;15.00;;
7527;SDS011;3805;49.006;8.514;2022-12-08T12:09:37;18.87;;;14.70;;
7527;SDS011;3805;49.006;8.514;2022-12-08T12:12:37;22.17;;;14.53;;
7527;SDS011;3805;49.006;8.514;2022-12-08T12:15:48;22.50;;;13.20;;
7527;SDS011;3805;49.006;8.514;2022-12-08T12:18:46;16.60;;;13.53;;
7527;SDS011;3805;49.006;8.514;2022-12-08T12:21:38;20.13;;;13.43;;
7527;SDS011;3805;49.006;8.514;2022-12-08T12:24:29;18.33;;;13.60;;
7527;SDS011;3805;49.006;8.514;2022-12-08T12:27:23;14.03;;;11.33;;
7527;SDS011;3805;49.006;8.514;2022-12-08T12:30:19;16.73;;;12.70;;
7527;SDS011;3805;49.006;8.514;2022-12-08T12:33:10;20.40;;;11.30;;
7527;SDS011;3805;49.006;8.514;2022-12-08T12:36:02;13.60;;;9.63;;
7527;SDS011;3805;49.006;8.514;2022-12-08T12:38:52;15.37;;;11.67;;
7527;SDS011;3805;49.006;8.514;2022-12-08T12:41:50;14.20;;;9.90;;
7527;SDS011;3805;49.006;8.514;2022-12-08T12:44:42;15.03;;;9.90;;
7527;SDS011;3805;49.006;8.514;2022-12-08T12:47:45;13.33;;;9.87;;
7527;SDS011;3805;49.006;8.514;2022-12-08T12:50:43;15.47;;;9.80;;
7527;SDS011;3805;49.006;8.514;2022-12-08T12:53:49;12.67;;;9.30;;
7527;SDS011;3805;49.006;8.514;2022-12-08T12:56:48;13.73;;;10.30;;
7527;SDS011;3805;49.006;8.514;2022-12-08T12:59:44;11.80;;;9.87;;
7527;SDS011;3805;49.006;8.514;2022-12-08T13:02:44;11.20;;;8.43;;
7527;SDS011;3805;49.006;8.514;2022-12-08T13:05:35;10.83;;;9.53;;
7527;SDS011;3805;49.006;8.514;2022-12-08T13:08:35;14.17;;;9.27;;
7527;SDS011;3805;49.006;8.514;2022-12-08T13:11:23;13.80;;;10.23;;
7527;SDS011;3805;49.006;8.514;2022-12-08T13:14:23;10.83;;;9.70;;
7527;SDS011;3805;49.006;8.514;2022-12-08T13:17:16;15.03;;;10.87;;
7527;SDS011;3805;49.006;8.514;2022-12-08T13:20:16;13.37;;;9.73;;
7527;SDS011;3805;49.006;8.514;2022-12-08T13:23:11;12.60;;;9.60;;
7527;SDS011;3805;49.006;8.514;2022-12-08T13:26:13;11.43;;;9.30;;
7527;SDS011;3805;49.006;8.514;2022-12-08T13:29:04;10.53;;;9.23;;
7527;SDS011;3805;49.006;8.514;2022-12-08T13:32:02;15.40;;;10.37;;
7527;SDS011;3805;49.006;8.514;2022-12-08T13:34:52;12.33;;;10.00;;
7527;SDS011;3805;49.006;8.514;2022-12-08T13:37:45;13.10;;;9.77;;
7527;SDS011;3805;49.006;8.514;2022-12-08T13:40:41;11.93;;;9.40;;
7527;SDS011;3805;49.006;8.514;2022-12-08T13:43:33;10.47;;;9.27;;
7527;SDS011;3805;49.006;8.514;2022-12-08T13:46:43;11.70;;;9.10;;
7527;SDS011;3805;49.006;8.514;2022-12-08T13:49:58;12.80;;;10.13;;
7527;SDS011;3805;49.006;8.514;2022-12-08T13:53:12;11.37;;;9.13;;
7527;SDS011;3805;49.006;8.514;2022-12-08T13:56:22;13.13;;;9.40;;
7527;SDS011;3805;49.006;8.514;2022-12-08T13:59:31;12.50;;;10.43;;
7527;SDS011;3805;49.006;8.514;2022-12-08T14:02:23;10.40;;;8.00;;
7527;SDS011;3805;49.006;8.514;2022-12-08T14:05:16;11.17;;;8.40;;
7527;SDS011;3805;49.006;8.514;2022-12-08T14:08:29;11.37;;;8.80;;
7527;SDS011;3805;49.006;8.514;2022-12-08T14:11:40;11.03;;;9.40;;
7527;SDS011;3805;49.006;8.514;2022-12-08T14:14:30;9.30;;;8.30;;
7527;SDS011;3805;49.006;8.514;2022-12-08T14:17:43;11.73;;;9.13;;
7527;SDS011;3805;49.006;8.514;2022-12-08T14:20:38;10.60;;;8.23;;
7527;SDS011;3805;49.006;8.514;2022-12-08T14:23:48;11.83;;;9.10;;
7527;SDS011;3805;49.006;8.514;2022-12-08T14:26:36;11.00;;;8.70;;
7527;SDS011;3805;49.006;8.514;2022-12-08T14:29:30;10.13;;;9.00;;
7527;SDS011;3805;49.006;8.514;2022-12-08T14:32:25;15.37;;;10.43;;
7527;SDS011;3805;49.006;8.514;2022-12-08T14:35:18;11.30;;;8.37;;
7527;SDS011;3805;49.006;8.514;2022-12-08T14:38:11;8.53;;;7.40;;
7527;SDS011;3805;49.006;8.514;2022-12-08T14:41:02;8.43;;;7.63;;
7527;SDS011;3805;49.006;8.514;2022-12-08T14:43:59;9.43;;;8.23;;
7527;SDS011;3805;49.006;8.514;2022-12-08T14:47:01;10.10;;;8.37;;
7527;SDS011;3805;49.006;8.514;2022-12-08T14:49:52;8.23;;;7.37;;
7527;SDS011;3805;49.006;8.514;2022-12-08T14:52:41;9.03;;;8.13;;
7527;SDS011;3805;49.006;8.514;2022-12-08T14:55:32;9.40;;;7.40;;
7527;SDS011;3805;49.006;8.514;2022-12-08T14:58:24;9.50;;;8.27;;
7527;SDS011;3805;49.006;8.514;2022-12-08T15:01:16;10.20;;;7.70;;
7527;SDS011;3805;49.006;8.514;2022-12-08T15:04:12;9.47;;;8.60;;
7527;SDS011;3805;49.006;8.514;2022-12-08T15:07:04;12.17;;;8.73;;
7527;SDS011;3805;49.006;8.514;2022-12-08T15:10:16;10.73;;;9.10;;
7527;SDS011;3805;49.006;8.514;2022-12-08T15:13:19;11.90;;;8.70;;
7527;SDS011;3805;49.006;8.514;2022-12-08T15:16:22;10.33;;;8.50;;
7527;SDS011;3805;49.006;8.514;2022-12-08T15:19:16;8.60;;;7.60;;
7527;SDS011;3805;49.006;8.514;2022-12-08T15:22:11;11.40;;;7.77;;
7527;SDS011;3805;49.006;8.514;2022-12-08T15:25:02;11.80;;;8.30;;
7527;SDS011;3805;49.006;8.514;2022-12-08T15:27:52;11.13;;;8.80;;
7527;SDS011;3805;49.006;8.514;2022-12-08T15:30:42;13.23;;;9.17;;
7527;SDS011;3805;49.006;8.514;2022-12-08T15:33:32;10.30;;;8.83;;
7527;SDS011;3805;49.006;8.514;2022-12-08T15:36:20;11.10;;;9.30;;
7527;SDS011;3805;49.006;8.514;2022-12-08T15:39:14;8.70;;;7.73;;
7527;SDS011;3805;49.006;8.514;2022-12-08T15:42:09;12.30;;;9.40;;
7527;SDS011;3805;49.006;8.514;2022-12-08T15:44:59;12.90;;;8.60;;
7527;SDS011;3805;49.006;8.514;2022-12-08T15:47:47;11.87;;;8.80;;
7527;SDS011;3805;49.006;8.514;2022-12-08T15:50:37;11.10;;;8.43;;
7527;SDS011;3805;49.006;8.514;2022-12-08T15:53:25;21.13;;;11.87;;
7527;SDS011;3805;49.006;8.514;2022-12-08T15:56:14;14.07;;;12.20;;
7527;SDS011;3805;49.006;8.514;2022-12-08T15:59:15;21.40;;;12.70;;
7527;SDS011;3805;49.006;8.514;2022-12-08T16:02:04;17.57;;;12.60;;
7527;SDS011;3805;49.006;8.514;2022-12-08T16:04:53;18.13;;;15.47;;
7527;SDS011;3805;49.006;8.514;2022-12-08T16:08:03;21.80;;;15.77;;
7527;SDS011;3805;49.006;8.514;2022-12-08T16:11:12;17.37;;;12.57;;
7527;SDS011;3805;49.006;8.514;2022-12-08T16:14:38;17.93;;;14.70;;
7527;SDS011;3805;49.006;8.514;2022-12-08T16:17:47;24.20;;;17.70;;
7527;SDS011;3805;49.006;8.514;2022-12-08T16:20:36;19.60;;;16.63;;
7527;SDS011;3805;49.006;8.514;2022-12-08T16:23:45;20.27;;;15.23;;
7527;SDS011;3805;49.006;8.514;2022-12-08T16:26:34;20.17;;;18.00;;
7527;SDS011;3805;49.006;8.514;2022-12-08T16:29:43;22.27;;;16.20;;
7527;SDS011;3805;49.006;8.514;2022-12-08T16:32:34;18.57;;;13.90;;
7527;SDS011;3805;49.006;8.514;2022-12-08T16:35:22;16.50;;;13.77;;
7527;SDS011;3805;49.006;8.514;2022-12-08T16:38:12;17.40;;;14.80;;
7527;SDS011;3805;49.006;8.514;2022-12-08T16:41:03;22.23;;;14.10;;
7527;SDS011;3805;49.006;8.514;2022-12-08T16:44:09;16.13;;;13.53;;
7527;SDS011;3805;49.006;8.514;2022-12-08T16:46:57;20.70;;;16.40;;
7527;SDS011;3805;49.006;8.514;2022-12-08T16:49:46;15.23;;;13.30;;
7527;SDS011;3805;49.006;8.514;2022-12-08T16:52:34;16.10;;;13.03;;
7527;SDS011;3805;49.006;8.514;2022-12-08T16:55:23;18.17;;;14.70;;
7527;SDS011;3805;49.006;8.514;2022-12-08T16:58:13;20.60;;;17.43;;
7527;SDS011;3805;49.006;8.514;2022-12-08T17:01:02;21.97;;;14.77;;
7527;SDS011;3805;49.006;8.514;2022-12-08T17:03:50;25.60;;;21.13;;
7527;SDS011;3805;49.006;8.514;2022-12-08T17:06:59;29.73;;;23.07;;
7527;SDS011;3805;49.006;8.514;2022-12-08T17:09:47;25.93;;;20.80;;
7527;SDS011;3805;49.006;8.514;2022-12-08T17:12:36;21.27;;;18.27;;
7527;SDS011;3805;49.006;8.514;2022-12-08T17:15:26;20.33;;;17.23;;
7527;SDS011;3805;49.006;8.514;2022-12-08T17:18:15;26.37;;;19.43;;
7527;SDS011;3805;49.006;8.514;2022-12-08T17:21:07;22.80;;;17.37;;
7527;SDS011;3805;49.006;8.514;2022-12-08T17:23:56;26.33;;;17.40;;